sensor_id;sensor_type;location;lat;lon;timestamp;pressure;altitude;pressure_sealevel;temperature;humidity
39487;BME280;25173;50.430;18.926;2022-09-29T00:01:01;96813.81;;;12.80;82.88
39487;BME280;25173;50.430;18.926;2022-09-29T00:04:02;96807.25;;;12.72;82.77
39487;BME280;25173;50.430;18.926;2022-09-29T00:07:02;96815.56;;;12.67;82.96
39487;BME280;25173;50.430;18.926;2022-09-29T00:10:03;96820.25;;;12.67;82.90
39487;BME280;25173;50.430;18.926;2022-09-29T00:13:04;96794.38;;;12.64;82.60
39487;BME280;25173;50.430;18.926;2022-09-29T00:16:05;96802.88;;;12.71;82.91
39487;BME280;25173;50.430;18.926;2022-09-29T00:19:06;96784.59;;;12.80;82.65
39487;BME280;25173;50.430;18.926;2022-09-29T00:22:06;96796.28;;;12.90;82.16
39487;BME280;25173;50.430;18.926;2022-09-29T00:25:07;96794.53;;;12.94;81.73
39487;BME280;25173;50.430;18.926;2022-09-29T00:28:08;96809.81;;;12.95;81.54
39487;BME280;25173;50.430;18.926;2022-09-29T00:31:09;96803.84;;;12.93;81.40
39487;BME280;25173;50.430;18.926;2022-09-29T00:34:10;96806.09;;;12.91;81.41
39487;BME280;25173;50.430;18.926;2022-09-29T00:37:11;96814.47;;;12.86;80.76
39487;BME280;25173;50.430;18.926;2022-09-29T00:40:13;96813.16;;;12.83;81.27
39487;BME280;25173;50.430;18.926;2022-09-29T00:43:19;96816.25;;;12.81;81.37
39487;BME280;25173;50.430;18.926;2022-09-29T00:46:25;96818.47;;;12.79;81.37
39487;BME280;25173;50.430;18.926;2022-09-29T00:49:28;96816.25;;;12.81;81.66
39487;BME280;25173;50.430;18.926;2022-09-29T00:52:36;96823.28;;;12.82;81.10
39487;BME280;25173;50.430;18.926;2022-09-29T00:55:54;96829.09;;;12.81;81.15
39487;BME280;25173;50.430;18.926;2022-09-29T00:59:00;96829.09;;;12.72;80.92
39487;BME280;25173;50.430;18.926;2022-09-29T01:02:02;96834.22;;;12.65;80.91
39487;BME280;25173;50.430;18.926;2022-09-29T01:05:07;96837.25;;;12.55;80.45
39487;BME280;25173;50.430;18.926;2022-09-29T01:08:16;96838.69;;;12.44;80.92
39487;BME280;25173;50.430;18.926;2022-09-29T01:11:20;96843.34;;;12.43;81.29
39487;BME280;25173;50.430;18.926;2022-09-29T01:14:21;96843.97;;;12.40;80.83
39487;BME280;25173;50.430;18.926;2022-09-29T01:17:22;96839.94;;;12.38;81.11
39487;BME280;25173;50.430;18.926;2022-09-29T01:20:23;96836.78;;;12.44;81.38
39487;BME280;25173;50.430;18.926;2022-09-29T01:30:18;96847.06;;;12.56;82.04
39487;BME280;25173;50.430;18.926;2022-09-29T01:33:28;96860.56;;;12.61;81.73
39487;BME280;25173;50.430;18.926;2022-09-29T01:40:16;96877.78;;;12.79;81.89
39487;BME280;25173;50.430;18.926;2022-09-29T01:43:35;96864.13;;;12.79;81.57
39487;BME280;25173;50.430;18.926;2022-09-29T01:46:43;96853.69;;;12.81;81.09
39487;BME280;25173;50.430;18.926;2022-09-29T01:49:51;96854.81;;;12.89;81.07
39487;BME280;25173;50.430;18.926;2022-09-29T01:53:06;96850.94;;;12.90;80.87
39487;BME280;25173;50.430;18.926;2022-09-29T01:56:11;96849.34;;;12.89;80.42
39487;BME280;25173;50.430;18.926;2022-09-29T01:59:22;96852.88;;;12.98;80.86
39487;BME280;25173;50.430;18.926;2022-09-29T02:02:39;96861.25;;;13.01;81.22
39487;BME280;25173;50.430;18.926;2022-09-29T02:05:51;96868.00;;;13.04;80.91
39487;BME280;25173;50.430;18.926;2022-09-29T02:08:54;96876.22;;;13.04;80.63
39487;BME280;25173;50.430;18.926;2022-09-29T02:11:57;96885.97;;;13.05;80.68
39487;BME280;25173;50.430;18.926;2022-09-29T02:15:02;96882.13;;;13.06;80.77
39487;BME280;25173;50.430;18.926;2022-09-29T02:18:21;96876.03;;;13.09;80.88
39487;BME280;25173;50.430;18.926;2022-09-29T02:21:22;96871.38;;;13.09;80.66
39487;BME280;25173;50.430;18.926;2022-09-29T02:24:23;96865.25;;;13.12;80.55
39487;BME280;25173;50.430;18.926;2022-09-29T02:27:26;96856.13;;;13.17;80.32
39487;BME280;25173;50.430;18.926;2022-09-29T02:30:28;96863.03;;;13.23;80.61
39487;BME280;25173;50.430;18.926;2022-09-29T02:33:28;96871.06;;;13.19;80.08
39487;BME280;25173;50.430;18.926;2022-09-29T02:36:43;96861.59;;;13.17;80.19
39487;BME280;25173;50.430;18.926;2022-09-29T02:40:11;96867.88;;;13.17;80.42
39487;BME280;25173;50.430;18.926;2022-09-29T03:03:10;96864.00;;;13.18;80.18
39487;BME280;25173;50.430;18.926;2022-09-29T03:06:12;96861.09;;;13.15;79.94
39487;BME280;25173;50.430;18.926;2022-09-29T03:09:13;96859.19;;;13.15;80.10
39487;BME280;25173;50.430;18.926;2022-09-29T03:12:14;96853.22;;;13.22;80.23
39487;BME280;25173;50.430;18.926;2022-09-29T03:15:15;96857.06;;;13.30;80.02
39487;BME280;25173;50.430;18.926;2022-09-29T03:18:15;96854.16;;;13.35;79.87
39487;BME280;25173;50.430;18.926;2022-09-29T03:21:16;96857.06;;;13.38;79.69
39487;BME280;25173;50.430;18.926;2022-09-29T03:24:17;96858.69;;;13.39;79.61
39487;BME280;25173;50.430;18.926;2022-09-29T03:27:18;96864.78;;;13.36;79.46
39487;BME280;25173;50.430;18.926;2022-09-29T03:30:18;96875.09;;;13.31;79.27
39487;BME280;25173;50.430;18.926;2022-09-29T03:33:19;96883.59;;;13.20;79.39
39487;BME280;25173;50.430;18.926;2022-09-29T03:36:21;96879.88;;;13.08;79.43
39487;BME280;25173;50.430;18.926;2022-09-29T03:39:22;96884.53;;;13.07;80.07
39487;BME280;25173;50.430;18.926;2022-09-29T03:42:23;96883.13;;;13.10;80.06
39487;BME280;25173;50.430;18.926;2022-09-29T03:45:24;96892.13;;;13.10;79.97
39487;BME280;25173;50.430;18.926;2022-09-29T03:48:24;96885.97;;;13.05;79.97
39487;BME280;25173;50.430;18.926;2022-09-29T03:51:29;96882.78;;;13.03;80.10
39487;BME280;25173;50.430;18.926;2022-09-29T03:54:30;96886.31;;;13.03;80.13
39487;BME280;25173;50.430;18.926;2022-09-29T03:57:31;96882.00;;;13.11;80.70
39487;BME280;25173;50.430;18.926;2022-09-29T04:00:32;96883.91;;;13.19;80.35
39487;BME280;25173;50.430;18.926;2022-09-29T04:03:33;96893.09;;;13.23;79.72
39487;BME280;25173;50.430;18.926;2022-09-29T04:06:34;96896.34;;;13.25;79.77
39487;BME280;25173;50.430;18.926;2022-09-29T04:09:35;96894.72;;;13.24;79.42
39487;BME280;25173;50.430;18.926;2022-09-29T04:12:36;96894.22;;;13.22;79.57
39487;BME280;25173;50.430;18.926;2022-09-29T04:15:36;96892.47;;;13.26;79.50
39487;BME280;25173;50.430;18.926;2022-09-29T04:18:37;96896.34;;;13.25;79.56
39487;BME280;25173;50.430;18.926;2022-09-29T04:21:37;96901.13;;;13.28;79.52
39487;BME280;25173;50.430;18.926;2022-09-29T04:24:38;96888.44;;;13.32;79.58
39487;BME280;25173;50.430;18.926;2022-09-29T04:27:39;96896.66;;;13.32;78.93
39487;BME280;25173;50.430;18.926;2022-09-29T04:30:40;96896.66;;;13.32;79.39
39487;BME280;25173;50.430;18.926;2022-09-29T04:33:40;96904.19;;;13.27;79.16
39487;BME280;25173;50.430;18.926;2022-09-29T04:36:41;96911.13;;;13.24;79.59
39487;BME280;25173;50.430;18.926;2022-09-29T04:39:42;96913.84;;;13.24;79.36
39487;BME280;25173;50.430;18.926;2022-09-29T04:42:42;96921.75;;;13.26;79.48
39487;BME280;25173;50.430;18.926;2022-09-29T04:45:43;96919.66;;;13.31;79.38
39487;BME280;25173;50.430;18.926;2022-09-29T04:48:43;96912.75;;;13.34;79.16
39487;BME280;25173;50.430;18.926;2022-09-29T04:51:44;96916.41;;;13.38;79.42
39487;BME280;25173;50.430;18.926;2022-09-29T04:54:45;96916.09;;;13.39;79.22
39487;BME280;25173;50.430;18.926;2022-09-29T04:57:46;96915.44;;;13.42;79.58
39487;BME280;25173;50.430;18.926;2022-09-29T05:00:47;96919.66;;;13.48;79.46
39487;BME280;25173;50.430;18.926;2022-09-29T05:03:48;96921.09;;;13.54;79.42
39487;BME280;25173;50.430;18.926;2022-09-29T05:06:49;96931.72;;;13.56;79.04
39487;BME280;25173;50.430;18.926;2022-09-29T05:09:50;96934.91;;;13.49;78.56
39487;BME280;25173;50.430;18.926;2022-09-29T05:12:51;96928.47;;;13.45;79.02
39487;BME280;25173;50.430;18.926;2022-09-29T05:15:55;96931.22;;;13.45;79.04
39487;BME280;25173;50.430;18.926;2022-09-29T05:18:57;96936.19;;;13.43;79.35
39487;BME280;25173;50.430;18.926;2022-09-29T05:21:58;96945.03;;;13.49;79.40
39487;BME280;25173;50.430;18.926;2022-09-29T05:24:58;96947.94;;;13.52;79.31
39487;BME280;25173;50.430;18.926;2022-09-29T05:27:59;96938.13;;;13.51;79.34
39487;BME280;25173;50.430;18.926;2022-09-29T05:31:18;96932.03;;;13.54;79.52
39487;BME280;25173;50.430;18.926;2022-09-29T05:34:38;96929.91;;;13.60;79.59
39487;BME280;25173;50.430;18.926;2022-09-29T05:37:38;96922.34;;;13.66;79.47
39487;BME280;25173;50.430;18.926;2022-09-29T05:40:39;96927.00;;;13.74;79.42
39487;BME280;25173;50.430;18.926;2022-09-29T05:43:40;96939.25;;;13.76;78.94
39487;BME280;25173;50.430;18.926;2022-09-29T05:46:40;96940.50;;;13.79;78.87
39487;BME280;25173;50.430;18.926;2022-09-29T05:49:41;96940.50;;;13.79;78.62
39487;BME280;25173;50.430;18.926;2022-09-29T05:52:41;96927.78;;;13.83;78.78
39487;BME280;25173;50.430;18.926;2022-09-29T05:55:42;96926.16;;;13.90;79.05
39487;BME280;25173;50.430;18.926;2022-09-29T05:58:42;96927.91;;;14.04;79.55
39487;BME280;25173;50.430;18.926;2022-09-29T06:01:43;96930.28;;;14.14;79.06
39487;BME280;25173;50.430;18.926;2022-09-29T06:04:44;96938.47;;;14.22;79.14
39487;BME280;25173;50.430;18.926;2022-09-29T06:07:44;96944.25;;;14.29;79.06
39487;BME280;25173;50.430;18.926;2022-09-29T06:10:45;96945.69;;;14.35;78.71
39487;BME280;25173;50.430;18.926;2022-09-29T06:13:47;96947.47;;;14.40;78.23
39487;BME280;25173;50.430;18.926;2022-09-29T06:16:48;96952.44;;;14.38;78.10
39487;BME280;25173;50.430;18.926;2022-09-29T06:19:49;96954.53;;;14.41;78.39
39487;BME280;25173;50.430;18.926;2022-09-29T06:22:53;96955.84;;;14.44;78.36
39487;BME280;25173;50.430;18.926;2022-09-29T06:25:55;96962.72;;;14.50;78.72
39487;BME280;25173;50.430;18.926;2022-09-29T06:28:56;96966.25;;;14.59;78.93
39487;BME280;25173;50.430;18.926;2022-09-29T06:31:57;96966.66;;;14.69;78.96
39487;BME280;25173;50.430;18.926;2022-09-29T06:34:58;96959.00;;;14.84;78.83
39487;BME280;25173;50.430;18.926;2022-09-29T06:38:17;96961.19;;;14.99;78.97
39487;BME280;25173;50.430;18.926;2022-09-29T06:41:18;96957.53;;;15.15;78.77
39487;BME280;25173;50.430;18.926;2022-09-29T06:44:21;96956.47;;;15.29;78.58
39487;BME280;25173;50.430;18.926;2022-09-29T06:47:23;96953.13;;;15.44;78.69
39487;BME280;25173;50.430;18.926;2022-09-29T06:50:24;96960.66;;;15.56;78.21
39487;BME280;25173;50.430;18.926;2022-09-29T06:53:25;96959.25;;;15.70;78.69
39487;BME280;25173;50.430;18.926;2022-09-29T06:56:25;96960.56;;;15.85;78.10
39487;BME280;25173;50.430;18.926;2022-09-29T06:59:26;96969.41;;;16.03;77.55
39487;BME280;25173;50.430;18.926;2022-09-29T07:02:26;96961.22;;;16.15;77.19
39487;BME280;25173;50.430;18.926;2022-09-29T07:05:28;96962.63;;;16.21;76.95
39487;BME280;25173;50.430;18.926;2022-09-29T07:08:28;96970.06;;;16.20;75.73
39487;BME280;25173;50.430;18.926;2022-09-29T07:11:30;96960.44;;;16.14;76.10
39487;BME280;25173;50.430;18.926;2022-09-29T07:14:31;96957.78;;;16.18;76.26
39487;BME280;25173;50.430;18.926;2022-09-29T07:17:31;96955.28;;;16.25;76.22
39487;BME280;25173;50.430;18.926;2022-09-29T07:20:32;96967.78;;;16.35;75.84
39487;BME280;25173;50.430;18.926;2022-09-29T07:23:32;96970.53;;;16.35;75.42
39487;BME280;25173;50.430;18.926;2022-09-29T07:26:33;96974.44;;;16.34;74.54
39487;BME280;25173;50.430;18.926;2022-09-29T07:29:34;96972.72;;;16.29;73.71
39487;BME280;25173;50.430;18.926;2022-09-29T07:32:34;96972.47;;;16.22;73.74
39487;BME280;25173;50.430;18.926;2022-09-29T07:35:35;96971.66;;;16.21;73.78
39487;BME280;25173;50.430;18.926;2022-09-29T07:38:35;96970.63;;;16.14;73.65
39487;BME280;25173;50.430;18.926;2022-09-29T07:41:36;96975.53;;;16.20;73.72
39487;BME280;25173;50.430;18.926;2022-09-29T07:44:36;96979.59;;;16.35;74.53
39487;BME280;25173;50.430;18.926;2022-09-29T07:47:37;96977.44;;;16.53;73.99
39487;BME280;25173;50.430;18.926;2022-09-29T07:50:38;96976.91;;;16.72;74.16
39487;BME280;25173;50.430;18.926;2022-09-29T07:53:38;96989.28;;;16.90;73.66
39487;BME280;25173;50.430;18.926;2022-09-29T07:56:39;96991.50;;;16.96;72.40
39487;BME280;25173;50.430;18.926;2022-09-29T07:59:40;96988.03;;;16.99;72.64
39487;BME280;25173;50.430;18.926;2022-09-29T08:02:40;96995.13;;;17.13;72.57
39487;BME280;25173;50.430;18.926;2022-09-29T08:05:41;97000.97;;;17.23;72.26
39487;BME280;25173;50.430;18.926;2022-09-29T08:08:42;96996.88;;;17.17;71.73
39487;BME280;25173;50.430;18.926;2022-09-29T08:11:42;96997.06;;;17.12;70.99
39487;BME280;25173;50.430;18.926;2022-09-29T08:14:43;96996.63;;;17.10;71.37
39487;BME280;25173;50.430;18.926;2022-09-29T08:17:44;97012.09;;;17.15;71.42
39487;BME280;25173;50.430;18.926;2022-09-29T08:20:46;97013.03;;;17.19;71.42
39487;BME280;25173;50.430;18.926;2022-09-29T08:23:47;97005.00;;;17.26;71.52
39487;BME280;25173;50.430;18.926;2022-09-29T08:26:47;97012.22;;;17.30;71.24
39487;BME280;25173;50.430;18.926;2022-09-29T08:29:48;97025.28;;;17.33;70.46
39487;BME280;25173;50.430;18.926;2022-09-29T08:32:53;97021.03;;;17.36;70.77
39487;BME280;25173;50.430;18.926;2022-09-29T08:35:58;97023.91;;;17.27;70.30
39487;BME280;25173;50.430;18.926;2022-09-29T08:38:59;97028.38;;;17.20;70.66
39487;BME280;25173;50.430;18.926;2022-09-29T08:45:16;97036.31;;;17.33;70.55
39487;BME280;25173;50.430;18.926;2022-09-29T08:48:24;97045.81;;;17.48;70.66
39487;BME280;25173;50.430;18.926;2022-09-29T08:51:32;97035.69;;;17.64;70.52
39487;BME280;25173;50.430;18.926;2022-09-29T08:54:36;97039.31;;;17.80;69.65
39487;BME280;25173;50.430;18.926;2022-09-29T08:57:39;97039.84;;;17.98;69.52
39487;BME280;25173;50.430;18.926;2022-09-29T09:04:26;97030.09;;;18.29;69.97
39487;BME280;25173;50.430;18.926;2022-09-29T09:07:46;97039.97;;;18.45;67.78
39487;BME280;25173;50.430;18.926;2022-09-29T09:11:09;97044.34;;;18.58;67.72
39487;BME280;25173;50.430;18.926;2022-09-29T09:23:57;97050.22;;;18.17;64.54
39487;BME280;25173;50.430;18.926;2022-09-29T09:27:02;97048.06;;;17.82;64.67
39487;BME280;25173;50.430;18.926;2022-09-29T09:30:11;97053.38;;;17.39;64.16
39487;BME280;25173;50.430;18.926;2022-09-29T09:33:22;97059.44;;;17.08;64.91
39487;BME280;25173;50.430;18.926;2022-09-29T09:36:32;97058.59;;;16.83;65.18
39487;BME280;25173;50.430;18.926;2022-09-29T09:39:48;97055.03;;;16.71;65.38
39487;BME280;25173;50.430;18.926;2022-09-29T09:43:21;97055.16;;;16.41;64.56
39487;BME280;25173;50.430;18.926;2022-09-29T09:46:37;97058.94;;;16.16;65.94
39487;BME280;25173;50.430;18.926;2022-09-29T09:49:43;97067.19;;;16.16;67.25
39487;BME280;25173;50.430;18.926;2022-09-29T09:52:52;97065.19;;;16.25;67.43
39487;BME280;25173;50.430;18.926;2022-09-29T09:56:03;97067.19;;;16.37;67.10
39487;BME280;25173;50.430;18.926;2022-09-29T10:02:28;97074.97;;;16.67;67.30
39487;BME280;25173;50.430;18.926;2022-09-29T10:05:35;97062.97;;;16.84;66.91
39487;BME280;25173;50.430;18.926;2022-09-29T10:08:39;97073.66;;;17.10;66.97
39487;BME280;25173;50.430;18.926;2022-09-29T10:11:42;97074.13;;;17.36;66.51
39487;BME280;25173;50.430;18.926;2022-09-29T10:14:51;97075.50;;;17.67;65.92
39487;BME280;25173;50.430;18.926;2022-09-29T10:18:02;97073.16;;;17.93;64.69
39487;BME280;25173;50.430;18.926;2022-09-29T10:24:35;97077.69;;;18.13;63.78
39487;BME280;25173;50.430;18.926;2022-09-29T10:27:41;97069.09;;;18.15;63.91
39487;BME280;25173;50.430;18.926;2022-09-29T10:30:42;97074.38;;;18.08;63.29
39487;BME280;25173;50.430;18.926;2022-09-29T10:33:58;97071.88;;;18.03;62.98
39487;BME280;25173;50.430;18.926;2022-09-29T10:37:02;97079.66;;;18.13;63.06
39487;BME280;25173;50.430;18.926;2022-09-29T10:46:37;97081.41;;;18.61;61.54
39487;BME280;25173;50.430;18.926;2022-09-29T10:49:46;97085.38;;;18.91;60.42
39487;BME280;25173;50.430;18.926;2022-09-29T10:55:54;97087.19;;;19.31;60.49
39487;BME280;25173;50.430;18.926;2022-09-29T10:59:00;97093.69;;;19.38;59.37
39487;BME280;25173;50.430;18.926;2022-09-29T11:02:01;97086.09;;;19.35;59.46
39487;BME280;25173;50.430;18.926;2022-09-29T11:05:15;97091.03;;;19.26;59.22
39487;BME280;25173;50.430;18.926;2022-09-29T11:08:16;97093.97;;;19.18;59.14
39487;BME280;25173;50.430;18.926;2022-09-29T11:11:38;97091.25;;;19.06;57.36
39487;BME280;25173;50.430;18.926;2022-09-29T11:14:41;97096.06;;;18.93;58.93
39487;BME280;25173;50.430;18.926;2022-09-29T11:17:48;97088.59;;;18.93;59.59
39487;BME280;25173;50.430;18.926;2022-09-29T11:21:01;97089.66;;;19.05;59.56
39487;BME280;25173;50.430;18.926;2022-09-29T11:24:12;97096.78;;;19.21;59.66
39487;BME280;25173;50.430;18.926;2022-09-29T11:34:01;97099.84;;;20.17;59.00
39487;BME280;25173;50.430;18.926;2022-09-29T11:47:39;97088.16;;;20.82;55.63
39487;BME280;25173;50.430;18.926;2022-09-29T12:04:13;97085.50;;;21.57;53.72
39487;BME280;25173;50.430;18.926;2022-09-29T12:11:06;97086.28;;;22.37;52.13
39487;BME280;25173;50.430;18.926;2022-09-29T12:17:20;97096.41;;;22.56;50.71
39487;BME280;25173;50.430;18.926;2022-09-29T12:20:27;97093.34;;;22.64;50.13
39487;BME280;25173;50.430;18.926;2022-09-29T12:23:30;97094.50;;;22.63;49.63
39487;BME280;25173;50.430;18.926;2022-09-29T12:26:33;97087.41;;;22.66;49.19
39487;BME280;25173;50.430;18.926;2022-09-29T12:29:42;97087.81;;;22.68;49.06
39487;BME280;25173;50.430;18.926;2022-09-29T12:32:50;97098.53;;;22.36;48.53
39487;BME280;25173;50.430;18.926;2022-09-29T12:40:00;97099.16;;;21.96;50.08
39487;BME280;25173;50.430;18.926;2022-09-29T12:43:27;97098.97;;;22.08;49.40
39487;BME280;25173;50.430;18.926;2022-09-29T12:46:43;97096.78;;;22.24;49.50
39487;BME280;25173;50.430;18.926;2022-09-29T12:50:02;97096.59;;;22.40;49.36
39487;BME280;25173;50.430;18.926;2022-09-29T12:53:16;97106.75;;;22.59;48.66
39487;BME280;25173;50.430;18.926;2022-09-29T12:56:27;97102.75;;;22.56;49.05
39487;BME280;25173;50.430;18.926;2022-09-29T13:00:16;97090.75;;;22.45;47.65
39487;BME280;25173;50.430;18.926;2022-09-29T13:10:46;97111.72;;;22.13;49.39
39487;BME280;25173;50.430;18.926;2022-09-29T13:14:11;97111.25;;;22.07;48.87
39487;BME280;25173;50.430;18.926;2022-09-29T13:27:20;97126.53;;;21.97;48.30
39487;BME280;25173;50.430;18.926;2022-09-29T13:30:32;97125.38;;;21.76;48.68
39487;BME280;25173;50.430;18.926;2022-09-29T13:33:36;97129.84;;;21.57;48.74
39487;BME280;25173;50.430;18.926;2022-09-29T13:36:39;97125.03;;;21.09;48.79
39487;BME280;25173;50.430;18.926;2022-09-29T13:39:50;97128.59;;;20.90;49.58
39487;BME280;25173;50.430;18.926;2022-09-29T13:42:54;97137.50;;;20.22;49.60
39487;BME280;25173;50.430;18.926;2022-09-29T13:45:55;97141.50;;;19.74;50.51
39487;BME280;25173;50.430;18.926;2022-09-29T13:55:56;97134.84;;;18.84;51.40
39487;BME280;25173;50.430;18.926;2022-09-29T13:58:59;97140.09;;;18.74;52.35
39487;BME280;25173;50.430;18.926;2022-09-29T14:02:01;97135.56;;;18.81;53.02
39487;BME280;25173;50.430;18.926;2022-09-29T14:05:04;97133.81;;;19.05;53.09
39487;BME280;25173;50.430;18.926;2022-09-29T14:08:13;97141.41;;;19.39;52.26
39487;BME280;25173;50.430;18.926;2022-09-29T14:11:26;97141.22;;;19.79;51.84
39487;BME280;25173;50.430;18.926;2022-09-29T14:14:33;97141.25;;;20.14;51.34
39487;BME280;25173;50.430;18.926;2022-09-29T14:17:41;97148.16;;;20.39;50.40
39487;BME280;25173;50.430;18.926;2022-09-29T14:20:59;97152.97;;;20.42;49.74
39487;BME280;25173;50.430;18.926;2022-09-29T14:24:02;97160.81;;;20.40;50.36
39487;BME280;25173;50.430;18.926;2022-09-29T14:27:31;97163.94;;;20.39;49.76
39487;BME280;25173;50.430;18.926;2022-09-29T14:33:38;97177.56;;;20.12;50.23
39487;BME280;25173;50.430;18.926;2022-09-29T14:36:40;97176.06;;;19.99;50.29
39487;BME280;25173;50.430;18.926;2022-09-29T14:39:48;97175.75;;;19.85;50.32
39487;BME280;25173;50.430;18.926;2022-09-29T14:43:15;97174.22;;;19.72;50.37
39487;BME280;25173;50.430;18.926;2022-09-29T14:50:08;97178.66;;;19.92;50.68
39487;BME280;25173;50.430;18.926;2022-09-29T15:00:18;97173.69;;;20.17;49.64
39487;BME280;25173;50.430;18.926;2022-09-29T15:03:52;97169.66;;;19.95;49.25
39487;BME280;25173;50.430;18.926;2022-09-29T15:06:53;97173.81;;;20.05;50.52
39487;BME280;25173;50.430;18.926;2022-09-29T15:09:58;97163.38;;;20.14;50.45
39487;BME280;25173;50.430;18.926;2022-09-29T15:13:23;97168.41;;;20.43;50.00
39487;BME280;25173;50.430;18.926;2022-09-29T15:16:32;97176.63;;;20.78;50.32
39487;BME280;25173;50.430;18.926;2022-09-29T15:25:54;97188.63;;;21.24;49.20
39487;BME280;25173;50.430;18.926;2022-09-29T15:28:56;97187.50;;;21.48;49.04
39487;BME280;25173;50.430;18.926;2022-09-29T15:31:56;97182.56;;;21.61;48.87
39487;BME280;25173;50.430;18.926;2022-09-29T15:35:03;97198.06;;;21.65;48.49
39487;BME280;25173;50.430;18.926;2022-09-29T15:44:15;97203.44;;;21.55;48.70
39487;BME280;25173;50.430;18.926;2022-09-29T15:47:20;97201.34;;;21.48;48.59
39487;BME280;25173;50.430;18.926;2022-09-29T15:50:24;97197.31;;;21.23;48.52
39487;BME280;25173;50.430;18.926;2022-09-29T15:53:25;97199.84;;;20.93;48.64
39487;BME280;25173;50.430;18.926;2022-09-29T15:56:31;97198.31;;;20.57;49.26
39487;BME280;25173;50.430;18.926;2022-09-29T15:59:38;97202.09;;;20.14;49.39
39487;BME280;25173;50.430;18.926;2022-09-29T16:02:41;97205.97;;;19.78;50.35
39487;BME280;25173;50.430;18.926;2022-09-29T16:05:53;97200.28;;;19.43;50.51
39487;BME280;25173;50.430;18.926;2022-09-29T16:08:57;97207.38;;;19.13;51.49
39487;BME280;25173;50.430;18.926;2022-09-29T16:12:05;97208.31;;;18.89;51.73
39487;BME280;25173;50.430;18.926;2022-09-29T16:15:16;97215.66;;;18.57;52.04
39487;BME280;25173;50.430;18.926;2022-09-29T16:18:30;97217.31;;;18.21;52.27
39487;BME280;25173;50.430;18.926;2022-09-29T16:21:35;97219.19;;;17.93;53.11
39487;BME280;25173;50.430;18.926;2022-09-29T16:24:51;97231.19;;;17.64;53.73
39487;BME280;25173;50.430;18.926;2022-09-29T16:27:57;97235.84;;;17.39;54.37
39487;BME280;25173;50.430;18.926;2022-09-29T16:31:09;97239.19;;;17.12;54.86
39487;BME280;25173;50.430;18.926;2022-09-29T16:37:23;97249.66;;;16.65;55.87
39487;BME280;25173;50.430;18.926;2022-09-29T16:40:25;97251.50;;;16.52;56.12
39487;BME280;25173;50.430;18.926;2022-09-29T16:43:29;97255.13;;;16.44;56.18
39487;BME280;25173;50.430;18.926;2022-09-29T16:46:30;97252.28;;;16.32;55.99
39487;BME280;25173;50.430;18.926;2022-09-29T16:49:35;97261.25;;;16.20;56.46
39487;BME280;25173;50.430;18.926;2022-09-29T16:52:43;97271.84;;;16.01;56.65
39487;BME280;25173;50.430;18.926;2022-09-29T16:55:55;97266.31;;;15.80;57.21
39487;BME280;25173;50.430;18.926;2022-09-29T17:02:11;97269.28;;;15.49;57.87
39487;BME280;25173;50.430;18.926;2022-09-29T17:05:12;97276.28;;;15.30;58.44
39487;BME280;25173;50.430;18.926;2022-09-29T17:08:22;97281.78;;;15.12;59.02
39487;BME280;25173;50.430;18.926;2022-09-29T17:11:23;97297.63;;;14.98;59.18
39487;BME280;25173;50.430;18.926;2022-09-29T17:14:24;97294.25;;;14.84;59.72
39487;BME280;25173;50.430;18.926;2022-09-29T17:17:26;97304.75;;;14.73;59.62
39487;BME280;25173;50.430;18.926;2022-09-29T17:20:27;97308.59;;;14.64;59.45
39487;BME280;25173;50.430;18.926;2022-09-29T17:23:30;97301.78;;;14.53;60.04
39487;BME280;25173;50.430;18.926;2022-09-29T17:26:50;97302.63;;;14.45;60.54
39487;BME280;25173;50.430;18.926;2022-09-29T17:30:11;97308.81;;;14.28;60.01
39487;BME280;25173;50.430;18.926;2022-09-29T17:33:14;97314.44;;;14.14;60.38
39487;BME280;25173;50.430;18.926;2022-09-29T17:36:15;97311.47;;;14.02;60.51
39487;BME280;25173;50.430;18.926;2022-09-29T17:39:16;97313.06;;;13.94;60.64
39487;BME280;25173;50.430;18.926;2022-09-29T17:42:17;97312.09;;;13.90;60.61
39487;BME280;25173;50.430;18.926;2022-09-29T17:45:19;97323.97;;;13.86;61.13
39487;BME280;25173;50.430;18.926;2022-09-29T17:48:19;97327.03;;;13.84;61.35
39487;BME280;25173;50.430;18.926;2022-09-29T17:51:20;97322.50;;;13.80;61.69
39487;BME280;25173;50.430;18.926;2022-09-29T17:54:21;97334.56;;;13.79;62.08
39487;BME280;25173;50.430;18.926;2022-09-29T17:57:26;97336.19;;;13.80;62.45
39487;BME280;25173;50.430;18.926;2022-09-29T18:00:34;97340.88;;;13.88;62.72
39487;BME280;25173;50.430;18.926;2022-09-29T18:03:38;97343.81;;;13.91;62.57
39487;BME280;25173;50.430;18.926;2022-09-29T18:06:38;97334.16;;;13.94;62.37
39487;BME280;25173;50.430;18.926;2022-09-29T18:09:40;97340.78;;;13.93;62.54
39487;BME280;25173;50.430;18.926;2022-09-29T18:12:40;97339.16;;;13.92;62.55
39487;BME280;25173;50.430;18.926;2022-09-29T18:15:41;97335.91;;;13.90;62.56
39487;BME280;25173;50.430;18.926;2022-09-29T18:18:43;97330.75;;;13.88;62.75
39487;BME280;25173;50.430;18.926;2022-09-29T18:21:44;97329.44;;;13.86;62.82
39487;BME280;25173;50.430;18.926;2022-09-29T18:24:45;97324.31;;;13.84;62.79
39487;BME280;25173;50.430;18.926;2022-09-29T18:27:46;97325.75;;;13.82;62.71
39487;BME280;25173;50.430;18.926;2022-09-29T18:30:52;97333.28;;;13.76;62.70
39487;BME280;25173;50.430;18.926;2022-09-29T18:33:54;97334.34;;;13.67;62.63
39487;BME280;25173;50.430;18.926;2022-09-29T18:36:54;97334.00;;;13.59;62.67
39487;BME280;25173;50.430;18.926;2022-09-29T18:39:55;97330.41;;;13.50;63.10
39487;BME280;25173;50.430;18.926;2022-09-29T18:42:56;97337.63;;;13.46;63.22
39487;BME280;25173;50.430;18.926;2022-09-29T18:45:58;97340.97;;;13.43;63.27
39487;BME280;25173;50.430;18.926;2022-09-29T18:48:58;97333.41;;;13.40;63.36